sensor_id;sensor_type;location;lat;lon;timestamp;pressure;altitude;pressure_sealevel;temperature;humidity
12594;BME280;6362;50.208;9.182;2024-02-14T00:00:12;100207.56;;;5.15;100.00
12594;BME280;6362;50.208;9.182;2024-02-14T00:02:45;100208.47;;;5.17;100.00
12594;BME280;6362;50.208;9.182;2024-02-14T00:05:11;100195.59;;;5.17;100.00
12594;BME280;6362;50.208;9.182;2024-02-14T00:07:37;100201.59;;;5.18;100.00
12594;BME280;6362;50.208;9.182;2024-02-14T00:10:03;100206.88;;;5.24;100.00
12594;BME280;6362;50.208;9.182;2024-02-14T00:12:32;100205.34;;;5.35;100.00
12594;BME280;6362;50.208;9.182;2024-02-14T00:14:58;100205.66;;;5.53;100.00
12594;BME280;6362;50.208;9.182;2024-02-14T00:17:23;100206.69;;;5.62;100.00
12594;BME280;6362;50.208;9.182;2024-02-14T00:19:50;100194.84;;;5.74;100.00
12594;BME280;6362;50.208;9.182;2024-02-14T00:22:16;100202.78;;;5.88;100.00
12594;BME280;6362;50.208;9.182;2024-02-14T00:24:41;100204.59;;;5.92;100.00
12594;BME280;6362;50.208;9.182;2024-02-14T00:27:07;100200.38;;;5.96;100.00
12594;BME280;6362;50.208;9.182;2024-02-14T00:29:32;100207.59;;;6.18;100.00
12594;BME280;6362;50.208;9.182;2024-02-14T00:32:00;100202.59;;;6.29;100.00
12594;BME280;6362;50.208;9.182;2024-02-14T00:34:25;100209.66;;;6.44;100.00
12594;BME280;6362;50.208;9.182;2024-02-14T00:36:51;100209.50;;;6.31;100.00
12594;BME280;6362;50.208;9.182;2024-02-14T00:39:16;100203.63;;;6.42;100.00
12594;BME280;6362;50.208;9.182;2024-02-14T00:41:42;100208.78;;;6.43;100.00
12594;BME280;6362;50.208;9.182;2024-02-14T00:44:07;100212.22;;;6.41;100.00
12594;BME280;6362;50.208;9.182;2024-02-14T00:46:32;100214.75;;;6.38;100.00
12594;BME280;6362;50.208;9.182;2024-02-14T00:48:58;100214.81;;;6.41;100.00
12594;BME280;6362;50.208;9.182;2024-02-14T00:51:24;100208.09;;;6.55;100.00
12594;BME280;6362;50.208;9.182;2024-02-14T00:53:51;100212.44;;;6.56;100.00
12594;BME280;6362;50.208;9.182;2024-02-14T00:56:17;100209.06;;;6.61;100.00
12594;BME280;6362;50.208;9.182;2024-02-14T00:58:43;100213.31;;;6.58;100.00
12594;BME280;6362;50.208;9.182;2024-02-14T01:01:08;100207.25;;;6.56;100.00
12594;BME280;6362;50.208;9.182;2024-02-14T01:03:34;100211.59;;;6.60;100.00
12594;BME280;6362;50.208;9.182;2024-02-14T01:06:00;100196.09;;;6.58;100.00
12594;BME280;6362;50.208;9.182;2024-02-14T01:08:25;100190.00;;;6.55;100.00
12594;BME280;6362;50.208;9.182;2024-02-14T01:10:51;100194.22;;;6.47;100.00
12594;BME280;6362;50.208;9.182;2024-02-14T01:13:18;100195.06;;;6.44;100.00
12594;BME280;6362;50.208;9.182;2024-02-14T01:15:43;100181.28;;;6.47;100.00
12594;BME280;6362;50.208;9.182;2024-02-14T01:18:09;100181.34;;;6.51;100.00
12594;BME280;6362;50.208;9.182;2024-02-14T01:20:35;100187.19;;;6.38;100.00
12594;BME280;6362;50.208;9.182;2024-02-14T01:23:01;100185.34;;;6.28;100.00
12594;BME280;6362;50.208;9.182;2024-02-14T01:25:26;100181.78;;;6.20;100.00
12594;BME280;6362;50.208;9.182;2024-02-14T01:27:52;100180.00;;;6.16;100.00
12594;BME280;6362;50.208;9.182;2024-02-14T01:30:18;100179.25;;;6.23;100.00
12594;BME280;6362;50.208;9.182;2024-02-14T01:32:44;100174.03;;;6.20;100.00
12594;BME280;6362;50.208;9.182;2024-02-14T01:35:09;100169.72;;;6.19;100.00
12594;BME280;6362;50.208;9.182;2024-02-14T01:37:35;100160.47;;;6.34;100.00
12594;BME280;6362;50.208;9.182;2024-02-14T01:40:01;100153.50;;;6.29;100.00
12594;BME280;6362;50.208;9.182;2024-02-14T01:42:26;100151.94;;;6.40;100.00
12594;BME280;6362;50.208;9.182;2024-02-14T01:44:53;100147.78;;;6.51;100.00
12594;BME280;6362;50.208;9.182;2024-02-14T01:47:20;100151.16;;;6.47;100.00
12594;BME280;6362;50.208;9.182;2024-02-14T01:49:46;100150.25;;;6.44;100.00
12594;BME280;6362;50.208;9.182;2024-02-14T01:52:13;100146.69;;;6.34;100.00
12594;BME280;6362;50.208;9.182;2024-02-14T01:54:39;100145.13;;;6.45;100.00
12594;BME280;6362;50.208;9.182;2024-02-14T01:57:05;100150.28;;;6.45;100.00
12594;BME280;6362;50.208;9.182;2024-02-14T01:59:32;100147.63;;;6.39;100.00
12594;BME280;6362;50.208;9.182;2024-02-14T02:02:00;100157.09;;;6.40;100.00
12594;BME280;6362;50.208;9.182;2024-02-14T02:04:25;100145.75;;;6.29;100.00
12594;BME280;6362;50.208;9.182;2024-02-14T02:06:51;100148.44;;;6.35;100.00
12594;BME280;6362;50.208;9.182;2024-02-14T02:09:22;100150.94;;;6.30;100.00
12594;BME280;6362;50.208;9.182;2024-02-14T02:11:52;100143.97;;;6.23;100.00
12594;BME280;6362;50.208;9.182;2024-02-14T02:14:21;100152.56;;;6.22;100.00
12594;BME280;6362;50.208;9.182;2024-02-14T02:16:48;100140.63;;;6.32;100.00
12594;BME280;6362;50.208;9.182;2024-02-14T02:19:14;100138.94;;;6.34;100.00
12594;BME280;6362;50.208;9.182;2024-02-14T02:21:41;100137.38;;;6.45;100.00
12594;BME280;6362;50.208;9.182;2024-02-14T02:24:08;100136.47;;;6.43;100.00
12594;BME280;6362;50.208;9.182;2024-02-14T02:26:33;100138.97;;;6.37;100.00
12594;BME280;6362;50.208;9.182;2024-02-14T02:28:59;100133.78;;;6.34;100.00
12594;BME280;6362;50.208;9.182;2024-02-14T02:31:25;100133.72;;;6.28;100.00
12594;BME280;6362;50.208;9.182;2024-02-14T02:33:51;100119.03;;;6.25;100.00
12594;BME280;6362;50.208;9.182;2024-02-14T02:36:17;100123.53;;;6.43;100.00
12594;BME280;6362;50.208;9.182;2024-02-14T02:38:42;100121.81;;;6.44;100.00
12594;BME280;6362;50.208;9.182;2024-02-14T02:41:08;100117.56;;;6.46;100.00
12594;BME280;6362;50.208;9.182;2024-02-14T02:43:34;100121.75;;;6.36;100.00
12594;BME280;6362;50.208;9.182;2024-02-14T02:46:00;100114.88;;;6.38;100.00
12594;BME280;6362;50.208;9.182;2024-02-14T02:48:26;100111.66;;;6.59;100.00
12594;BME280;6362;50.208;9.182;2024-02-14T02:50:52;100116.78;;;6.54;100.00
12594;BME280;6362;50.208;9.182;2024-02-14T02:53:18;100108.09;;;6.49;100.00
12594;BME280;6362;50.208;9.182;2024-02-14T02:55:44;100116.78;;;6.53;100.00
12594;BME280;6362;50.208;9.182;2024-02-14T02:58:10;100115.84;;;6.45;100.00
12594;BME280;6362;50.208;9.182;2024-02-14T03:00:35;100111.66;;;6.59;100.00
12594;BME280;6362;50.208;9.182;2024-02-14T03:03:01;100121.03;;;6.48;100.00
12594;BME280;6362;50.208;9.182;2024-02-14T03:05:30;100122.81;;;6.53;100.00
12594;BME280;6362;50.208;9.182;2024-02-14T03:07:58;100126.22;;;6.51;100.00
12594;BME280;6362;50.208;9.182;2024-02-14T03:10:24;100127.25;;;6.65;100.00
12594;BME280;6362;50.208;9.182;2024-02-14T03:12:51;100129.75;;;6.57;100.00
12594;BME280;6362;50.208;9.182;2024-02-14T03:15:17;100132.28;;;6.53;100.00
12594;BME280;6362;50.208;9.182;2024-02-14T03:17:43;100126.44;;;6.68;100.00
12594;BME280;6362;50.208;9.182;2024-02-14T03:20:10;100123.16;;;6.85;100.00
12594;BME280;6362;50.208;9.182;2024-02-14T03:22:42;100118.94;;;6.92;100.00
12594;BME280;6362;50.208;9.182;2024-02-14T03:25:16;100118.13;;;6.96;100.00
12594;BME280;6362;50.208;9.182;2024-02-14T03:27:42;100123.13;;;6.82;100.00
12594;BME280;6362;50.208;9.182;2024-02-14T03:30:11;100119.78;;;6.90;100.00
12594;BME280;6362;50.208;9.182;2024-02-14T03:32:38;100125.00;;;6.94;100.00
12594;BME280;6362;50.208;9.182;2024-02-14T03:35:04;100125.81;;;6.90;100.00
12594;BME280;6362;50.208;9.182;2024-02-14T03:37:30;100129.28;;;6.94;100.00
12594;BME280;6362;50.208;9.182;2024-02-14T03:39:55;100127.53;;;6.93;100.00
12594;BME280;6362;50.208;9.182;2024-02-14T03:42:21;100124.16;;;6.97;100.00
12594;BME280;6362;50.208;9.182;2024-02-14T03:44:46;100128.41;;;6.90;100.00
12594;BME280;6362;50.208;9.182;2024-02-14T03:47:12;100125.88;;;6.98;100.00
12594;BME280;6362;50.208;9.182;2024-02-14T03:49:40;100121.66;;;7.06;100.00
12594;BME280;6362;50.208;9.182;2024-02-14T03:52:06;100129.31;;;6.98;100.00
12594;BME280;6362;50.208;9.182;2024-02-14T03:54:38;100125.94;;;7.02;100.00
12594;BME280;6362;50.208;9.182;2024-02-14T03:57:04;100137.06;;;6.95;100.00
12594;BME280;6362;50.208;9.182;2024-02-14T03:59:35;100129.31;;;6.98;100.00
12594;BME280;6362;50.208;9.182;2024-02-14T04:02:01;100127.59;;;6.94;100.00
12594;BME280;6362;50.208;9.182;2024-02-14T04:04:26;100131.06;;;6.98;100.00
12594;BME280;6362;50.208;9.182;2024-02-14T04:06:52;100133.72;;;7.05;100.00
12594;BME280;6362;50.208;9.182;2024-02-14T04:09:17;100133.78;;;7.13;100.00
12594;BME280;6362;50.208;9.182;2024-02-14T04:11:43;100140.69;;;7.11;100.00
12594;BME280;6362;50.208;9.182;2024-02-14T04:14:08;100136.28;;;7.04;100.00
12594;BME280;6362;50.208;9.182;2024-02-14T04:16:34;100134.69;;;7.17;100.00
12594;BME280;6362;50.208;9.182;2024-02-14T04:19:02;100144.16;;;7.16;100.00
12594;BME280;6362;50.208;9.182;2024-02-14T04:21:27;100141.56;;;7.13;100.00
12594;BME280;6362;50.208;9.182;2024-02-14T04:23:53;100144.13;;;7.13;100.00
12594;BME280;6362;50.208;9.182;2024-02-14T04:26:22;100136.34;;;7.10;100.00
12594;BME280;6362;50.208;9.182;2024-02-14T04:28:48;100140.75;;;7.20;100.00
12594;BME280;6362;50.208;9.182;2024-02-14T04:31:13;100138.97;;;7.16;100.00
12594;BME280;6362;50.208;9.182;2024-02-14T04:33:39;100130.34;;;7.14;100.00
12594;BME280;6362;50.208;9.182;2024-02-14T04:36:05;100129.44;;;7.06;100.00
12594;BME280;6362;50.208;9.182;2024-02-14T04:38:31;100130.31;;;7.09;100.00
12594;BME280;6362;50.208;9.182;2024-02-14T04:40:57;100127.81;;;7.19;100.00
12594;BME280;6362;50.208;9.182;2024-02-14T04:43:25;100126.09;;;7.18;100.00
12594;BME280;6362;50.208;9.182;2024-02-14T04:45:52;100126.84;;;7.09;100.00
12594;BME280;6362;50.208;9.182;2024-02-14T04:48:17;100130.19;;;6.97;100.00
12594;BME280;6362;50.208;9.182;2024-02-14T04:50:43;100136.22;;;6.99;100.00
12594;BME280;6362;50.208;9.182;2024-02-14T04:53:08;100131.84;;;6.94;100.00
12594;BME280;6362;50.208;9.182;2024-02-14T04:55:34;100136.34;;;7.10;100.00
12594;BME280;6362;50.208;9.182;2024-02-14T04:58:00;100136.38;;;7.11;100.00
12594;BME280;6362;50.208;9.182;2024-02-14T05:00:26;100136.47;;;7.22;100.00
12594;BME280;6362;50.208;9.182;2024-02-14T05:02:51;100138.97;;;7.13;100.00
12594;BME280;6362;50.208;9.182;2024-02-14T05:05:17;100137.34;;;7.24;100.00
12594;BME280;6362;50.208;9.182;2024-02-14T05:07:42;100139.03;;;7.21;100.00
12594;BME280;6362;50.208;9.182;2024-02-14T05:10:08;100140.75;;;7.20;100.00
12594;BME280;6362;50.208;9.182;2024-02-14T05:12:33;100139.94;;;7.23;100.00
12594;BME280;6362;50.208;9.182;2024-02-14T05:14:59;100139.06;;;7.25;100.00
12594;BME280;6362;50.208;9.182;2024-02-14T05:17:24;100139.03;;;7.19;100.00
12594;BME280;6362;50.208;9.182;2024-02-14T05:19:50;100131.25;;;7.21;100.00
12594;BME280;6362;50.208;9.182;2024-02-14T05:22:16;100141.66;;;7.27;100.00
12594;BME280;6362;50.208;9.182;2024-02-14T05:24:41;100139.88;;;7.21;100.00
12594;BME280;6362;50.208;9.182;2024-02-14T05:27:06;100136.50;;;7.27;100.00
12594;BME280;6362;50.208;9.182;2024-02-14T05:29:32;100139.13;;;7.30;100.00
12594;BME280;6362;50.208;9.182;2024-02-14T05:31:58;100137.47;;;7.38;100.00
12594;BME280;6362;50.208;9.182;2024-02-14T05:34:23;100145.31;;;7.47;100.00
12594;BME280;6362;50.208;9.182;2024-02-14T05:36:49;100136.69;;;7.47;100.00
12594;BME280;6362;50.208;9.182;2024-02-14T05:39:14;100140.13;;;7.44;100.00
12594;BME280;6362;50.208;9.182;2024-02-14T05:41:41;100138.44;;;7.52;100.00
12594;BME280;6362;50.208;9.182;2024-02-14T05:44:06;100136.72;;;7.54;100.00
12594;BME280;6362;50.208;9.182;2024-02-14T05:46:32;100143.66;;;7.58;100.00
12594;BME280;6362;50.208;9.182;2024-02-14T05:48:57;100140.22;;;7.56;100.00
12594;BME280;6362;50.208;9.182;2024-02-14T05:51:23;100141.09;;;7.60;100.00
12594;BME280;6362;50.208;9.182;2024-02-14T05:53:49;100140.31;;;7.68;100.00
12594;BME280;6362;50.208;9.182;2024-02-14T05:56:14;100128.19;;;7.63;100.00
12594;BME280;6362;50.208;9.182;2024-02-14T05:58:40;100123.00;;;7.63;100.00
12594;BME280;6362;50.208;9.182;2024-02-14T06:01:05;100122.09;;;7.56;100.00
12594;BME280;6362;50.208;9.182;2024-02-14T06:03:31;100118.59;;;7.50;100.00
12594;BME280;6362;50.208;9.182;2024-02-14T06:05:57;100147.91;;;7.49;100.00
12594;BME280;6362;50.208;9.182;2024-02-14T06:08:23;100143.63;;;7.52;100.00
12594;BME280;6362;50.208;9.182;2024-02-14T06:10:52;100135.91;;;7.55;100.00
12594;BME280;6362;50.208;9.182;2024-02-14T06:13:18;100149.72;;;7.59;100.00
12594;BME280;6362;50.208;9.182;2024-02-14T06:15:44;100157.47;;;7.57;100.00
12594;BME280;6362;50.208;9.182;2024-02-14T06:18:10;100148.03;;;7.61;100.00
12594;BME280;6362;50.208;9.182;2024-02-14T06:20:36;100159.25;;;7.63;100.00
12594;BME280;6362;50.208;9.182;2024-02-14T06:23:01;100159.25;;;7.64;100.00
12594;BME280;6362;50.208;9.182;2024-02-14T06:25:27;100153.19;;;7.62;100.00
12594;BME280;6362;50.208;9.182;2024-02-14T06:27:52;100153.22;;;7.65;100.00
12594;BME280;6362;50.208;9.182;2024-02-14T06:30:19;100156.63;;;7.58;100.00
12594;BME280;6362;50.208;9.182;2024-02-14T06:32:45;100162.69;;;7.62;100.00
12594;BME280;6362;50.208;9.182;2024-02-14T06:35:10;100162.75;;;7.68;100.00
12594;BME280;6362;50.208;9.182;2024-02-14T06:37:36;100173.91;;;7.61;100.00
12594;BME280;6362;50.208;9.182;2024-02-14T06:40:02;100174.81;;;7.69;100.00
12594;BME280;6362;50.208;9.182;2024-02-14T06:42:27;100190.25;;;7.60;100.00
12594;BME280;6362;50.208;9.182;2024-02-14T06:44:53;100188.56;;;7.62;100.00
12594;BME280;6362;50.208;9.182;2024-02-14T06:47:18;100188.50;;;7.54;100.00
12594;BME280;6362;50.208;9.182;2024-02-14T06:49:44;100188.47;;;7.51;100.00
12594;BME280;6362;50.208;9.182;2024-02-14T06:52:09;100199.66;;;7.49;100.00
12594;BME280;6362;50.208;9.182;2024-02-14T06:54:35;100204.88;;;7.52;100.00
12594;BME280;6362;50.208;9.182;2024-02-14T06:57:00;100211.88;;;7.62;100.00
12594;BME280;6362;50.208;9.182;2024-02-14T06:59:26;100204.00;;;7.53;100.00
12594;BME280;6362;50.208;9.182;2024-02-14T07:01:52;100209.19;;;7.51;100.00
12594;BME280;6362;50.208;9.182;2024-02-14T07:04:21;100209.25;;;7.60;100.00
12594;BME280;6362;50.208;9.182;2024-02-14T07:06:52;100210.09;;;7.58;100.00
12594;BME280;6362;50.208;9.182;2024-02-14T07:09:18;100216.09;;;7.51;100.00
12594;BME280;6362;50.208;9.182;2024-02-14T07:11:43;100214.31;;;7.48;100.00
12594;BME280;6362;50.208;9.182;2024-02-14T07:14:11;100214.41;;;7.59;100.00
12594;BME280;6362;50.208;9.182;2024-02-14T07:16:36;100214.41;;;7.57;100.00
12594;BME280;6362;50.208;9.182;2024-02-14T07:19:02;100212.66;;;7.55;100.00
12594;BME280;6362;50.208;9.182;2024-02-14T07:21:27;100224.75;;;7.56;100.00
12594;BME280;6362;50.208;9.182;2024-02-14T07:23:53;100214.41;;;7.56;100.00
12594;BME280;6362;50.208;9.182;2024-02-14T07:26:18;100221.25;;;7.54;100.00
12594;BME280;6362;50.208;9.182;2024-02-14T07:28:44;100229.84;;;7.48;100.00
12594;BME280;6362;50.208;9.182;2024-02-14T07:31:09;100224.72;;;7.50;100.00
12594;BME280;6362;50.208;9.182;2024-02-14T07:33:35;100221.25;;;7.52;100.00
12594;BME280;6362;50.208;9.182;2024-02-14T07:36:00;100231.56;;;7.46;100.00
12594;BME280;6362;50.208;9.182;2024-02-14T07:38:26;100230.81;;;7.56;100.00
12594;BME280;6362;50.208;9.182;2024-02-14T07:40:52;100225.63;;;7.59;100.00
12594;BME280;6362;50.208;9.182;2024-02-14T07:43:17;100225.81;;;7.81;100.00
12594;BME280;6362;50.208;9.182;2024-02-14T07:45:43;100231.88;;;7.78;100.00
12594;BME280;6362;50.208;9.182;2024-02-14T07:48:09;100223.28;;;7.87;100.00
12594;BME280;6362;50.208;9.182;2024-02-14T07:50:34;100222.41;;;7.86;100.00
12594;BME280;6362;50.208;9.182;2024-02-14T07:53:01;100229.22;;;7.77;100.00
12594;BME280;6362;50.208;9.182;2024-02-14T07:55:27;100230.09;;;7.74;100.00
12594;BME280;6362;50.208;9.182;2024-02-14T07:57:52;100226.53;;;7.64;100.00
12594;BME280;6362;50.208;9.182;2024-02-14T08:00:18;100217.88;;;7.59;100.00
12594;BME280;6362;50.208;9.182;2024-02-14T08:02:50;100216.97;;;7.54;100.00
12594;BME280;6362;50.208;9.182;2024-02-14T08:05:17;100225.56;;;7.52;100.00
12594;BME280;6362;50.208;9.182;2024-02-14T08:07:44;100221.31;;;7.55;100.00
12594;BME280;6362;50.208;9.182;2024-02-14T08:10:10;100229.91;;;7.54;100.00
12594;BME280;6362;50.208;9.182;2024-02-14T08:12:35;100233.44;;;7.64;100.00
12594;BME280;6362;50.208;9.182;2024-02-14T08:15:01;100238.56;;;7.59;100.00
12594;BME280;6362;50.208;9.182;2024-02-14T08:17:30;100245.38;;;7.48;100.00
12594;BME280;6362;50.208;9.182;2024-02-14T08:19:55;100238.41;;;7.43;100.00
12594;BME280;6362;50.208;9.182;2024-02-14T08:22:21;100231.63;;;7.52;100.00
12594;BME280;6362;50.208;9.182;2024-02-14T08:24:47;100232.53;;;7.59;100.00
12594;BME280;6362;50.208;9.182;2024-02-14T08:27:12;100237.72;;;7.60;100.00
12594;BME280;6362;50.208;9.182;2024-02-14T08:29:37;100247.25;;;7.64;100.00
12594;BME280;6362;50.208;9.182;2024-02-14T08:32:03;100247.31;;;7.69;100.00
12594;BME280;6362;50.208;9.182;2024-02-14T08:34:30;100247.25;;;7.66;100.00
12594;BME280;6362;50.208;9.182;2024-02-14T08:36:55;100244.66;;;7.63;100.00
12594;BME280;6362;50.208;9.182;2024-02-14T08:39:21;100248.06;;;7.60;100.00
12594;BME280;6362;50.208;9.182;2024-02-14T08:41:47;100248.97;;;7.62;100.00
12594;BME280;6362;50.208;9.182;2024-02-14T08:44:13;100242.84;;;7.54;100.00
12594;BME280;6362;50.208;9.182;2024-02-14T08:46:38;100242.94;;;7.63;100.00
12594;BME280;6362;50.208;9.182;2024-02-14T08:49:04;100244.75;;;7.74;100.00
12594;BME280;6362;50.208;9.182;2024-02-14T08:51:36;100247.34;;;7.77;100.00
12594;BME280;6362;50.208;9.182;2024-02-14T08:54:02;100250.84;;;7.80;100.00
12594;BME280;6362;50.208;9.182;2024-02-14T08:56:31;100253.50;;;7.88;100.00
12594;BME280;6362;50.208;9.182;2024-02-14T08:59:02;100256.13;;;7.89;100.00
12594;BME280;6362;50.208;9.182;2024-02-14T09:01:30;100258.72;;;7.89;100.00
12594;BME280;6362;50.208;9.182;2024-02-14T09:03:57;100261.41;;;8.00;100.00
12594;BME280;6362;50.208;9.182;2024-02-14T09:06:24;100255.31;;;7.98;100.00
12594;BME280;6362;50.208;9.182;2024-02-14T09:08:49;100252.75;;;8.01;100.00
12594;BME280;6362;50.208;9.182;2024-02-14T09:11:18;100251.09;;;8.09;100.00
12594;BME280;6362;50.208;9.182;2024-02-14T09:13:44;100256.22;;;8.03;100.00
12594;BME280;6362;50.208;9.182;2024-02-14T09:16:13;100252.81;;;8.06;100.00
12594;BME280;6362;50.208;9.182;2024-02-14T09:18:40;100248.44;;;8.03;100.00
12594;BME280;6362;50.208;9.182;2024-02-14T09:21:06;100245.97;;;8.18;100.00
12594;BME280;6362;50.208;9.182;2024-02-14T09:23:32;100245.16;;;8.26;100.00
12594;BME280;6362;50.208;9.182;2024-02-14T09:25:58;100243.47;;;8.31;100.00
12594;BME280;6362;50.208;9.182;2024-02-14T09:28:24;100247.78;;;8.32;100.00
12594;BME280;6362;50.208;9.182;2024-02-14T09:30:50;100255.63;;;8.38;100.00
12594;BME280;6362;50.208;9.182;2024-02-14T09:33:16;100259.00;;;8.29;100.00
12594;BME280;6362;50.208;9.182;2024-02-14T09:35:41;100262.53;;;8.37;100.00
12594;BME280;6362;50.208;9.182;2024-02-14T09:38:12;100266.91;;;8.40;100.00
12594;BME280;6362;50.208;9.182;2024-02-14T09:40:40;100266.91;;;8.41;100.00
12594;BME280;6362;50.208;9.182;2024-02-14T09:43:13;100266.00;;;8.38;100.00
12594;BME280;6362;50.208;9.182;2024-02-14T09:45:42;100269.50;;;8.43;100.00
12594;BME280;6362;50.208;9.182;2024-02-14T09:48:08;100272.97;;;8.45;100.00
12594;BME280;6362;50.208;9.182;2024-02-14T09:50:34;100267.75;;;8.39;100.00
12594;BME280;6362;50.208;9.182;2024-02-14T09:53:02;100272.88;;;8.34;100.00
12594;BME280;6362;50.208;9.182;2024-02-14T09:55:27;100279.84;;;8.41;100.00
12594;BME280;6362;50.208;9.182;2024-02-14T09:57:54;100279.84;;;8.40;100.00
12594;BME280;6362;50.208;9.182;2024-02-14T10:00:21;100272.88;;;8.34;100.00
12594;BME280;6362;50.208;9.182;2024-02-14T10:02:47;100282.44;;;8.40;100.00
12594;BME280;6362;50.208;9.182;2024-02-14T10:05:13;100283.31;;;8.42;100.00
12594;BME280;6362;50.208;9.182;2024-02-14T10:07:43;100280.81;;;8.57;100.00
12594;BME280;6362;50.208;9.182;2024-02-14T10:10:09;100274.81;;;8.61;100.00
12594;BME280;6362;50.208;9.182;2024-02-14T10:12:35;100286.91;;;8.64;100.00
12594;BME280;6362;50.208;9.182;2024-02-14T10:15:00;100280.88;;;8.62;100.00
12594;BME280;6362;50.208;9.182;2024-02-14T10:17:27;100290.38;;;8.63;100.00
12594;BME280;6362;50.208;9.182;2024-02-14T10:19:59;100280.88;;;8.63;100.00
12594;BME280;6362;50.208;9.182;2024-02-14T10:22:32;100282.63;;;8.69;100.00
12594;BME280;6362;50.208;9.182;2024-02-14T10:24:59;100285.28;;;8.78;100.00
12594;BME280;6362;50.208;9.182;2024-02-14T10:27:25;100285.31;;;8.84;100.00
12594;BME280;6362;50.208;9.182;2024-02-14T10:29:50;100289.59;;;8.79;100.00
12594;BME280;6362;50.208;9.182;2024-02-14T10:32:16;100288.72;;;8.80;100.00
12594;BME280;6362;50.208;9.182;2024-02-14T10:34:43;100284.41;;;8.79;100.00
12594;BME280;6362;50.208;9.182;2024-02-14T10:37:13;100298.22;;;8.77;100.00
12594;BME280;6362;50.208;9.182;2024-02-14T10:39:41;100293.84;;;8.68;100.00
12594;BME280;6362;50.208;9.182;2024-02-14T10:42:06;100297.38;;;8.78;100.00
12594;BME280;6362;50.208;9.182;2024-02-14T10:44:32;100297.38;;;8.78;100.00
12594;BME280;6362;50.208;9.182;2024-02-14T10:47:00;100302.56;;;8.79;100.00
12594;BME280;6362;50.208;9.182;2024-02-14T10:49:29;100305.22;;;8.91;100.00
12594;BME280;6362;50.208;9.182;2024-02-14T10:51:56;100294.88;;;8.99;100.00
12594;BME280;6362;50.208;9.182;2024-02-14T10:54:26;100303.53;;;8.99;100.00
12594;BME280;6362;50.208;9.182;2024-02-14T10:56:53;100297.47;;;8.99;100.00
12594;BME280;6362;50.208;9.182;2024-02-14T10:59:23;100289.72;;;9.08;100.00
12594;BME280;6362;50.208;9.182;2024-02-14T11:01:51;100293.25;;;9.16;100.00
12594;BME280;6362;50.208;9.182;2024-02-14T11:04:17;100296.69;;;9.12;100.00
12594;BME280;6362;50.208;9.182;2024-02-14T11:06:47;100293.19;;;9.10;100.00
12594;BME280;6362;50.208;9.182;2024-02-14T11:09:14;100288.06;;;9.24;100.00
12594;BME280;6362;50.208;9.182;2024-02-14T11:11:44;100295.00;;;9.23;100.00
12594;BME280;6362;50.208;9.182;2024-02-14T11:14:10;100291.56;;;9.28;100.00
12594;BME280;6362;50.208;9.182;2024-02-14T11:16:38;100288.94;;;9.31;100.00
12594;BME280;6362;50.208;9.182;2024-02-14T11:19:10;100282.00;;;9.23;100.00
12594;BME280;6362;50.208;9.182;2024-02-14T11:21:46;100276.84;;;9.31;100.00
12594;BME280;6362;50.208;9.182;2024-02-14T11:24:14;100292.41;;;9.31;100.00
12594;BME280;6362;50.208;9.182;2024-02-14T11:26:46;100288.09;;;9.32;100.00
12594;BME280;6362;50.208;9.182;2024-02-14T11:29:16;100288.94;;;9.32;100.00
12594;BME280;6362;50.208;9.182;2024-02-14T11:31:42;100281.16;;;9.28;100.00
12594;BME280;6362;50.208;9.182;2024-02-14T11:34:08;100288.06;;;9.27;100.00
12594;BME280;6362;50.208;9.182;2024-02-14T11:36:36;100292.44;;;9.37;100.00
12594;BME280;6362;50.208;9.182;2024-02-14T11:39:03;100283.78;;;9.38;100.00
12594;BME280;6362;50.208;9.182;2024-02-14T11:41:30;100286.38;;;9.37;100.00
12594;BME280;6362;50.208;9.182;2024-02-14T11:44:01;100285.53;;;9.41;100.00
12594;BME280;6362;50.208;9.182;2024-02-14T11:46:31;100278.59;;;9.43;100.00
12594;BME280;6362;50.208;9.182;2024-02-14T11:48:58;100280.34;;;9.47;100.00
12594;BME280;6362;50.208;9.182;2024-02-14T11:51:27;100266.53;;;9.56;100.00
12594;BME280;6362;50.208;9.182;2024-02-14T11:53:53;100263.06;;;9.55;100.00
12594;BME280;6362;50.208;9.182;2024-02-14T11:56:21;100268.25;;;9.52;100.00
12594;BME280;6362;50.208;9.182;2024-02-14T11:58:47;100266.53;;;9.62;100.00
12594;BME280;6362;50.208;9.182;2024-02-14T12:01:16;100267.38;;;9.58;100.00
12594;BME280;6362;50.208;9.182;2024-02-14T12:03:42;100264.78;;;9.65;100.00
12594;BME280;6362;50.208;9.182;2024-02-14T12:06:09;100264.81;;;9.70;100.00
12594;BME280;6362;50.208;9.182;2024-02-14T12:08:36;100269.16;;;9.66;100.00
12594;BME280;6362;50.208;9.182;2024-02-14T12:11:02;100266.53;;;9.69;100.00
12594;BME280;6362;50.208;9.182;2024-02-14T12:13:28;100267.41;;;9.68;100.00
12594;BME280;6362;50.208;9.182;2024-02-14T12:15:57;100261.34;;;9.82;100.00
12594;BME280;6362;50.208;9.182;2024-02-14T12:18:23;100264.84;;;9.84;100.00
12594;BME280;6362;50.208;9.182;2024-02-14T12:20:49;100258.78;;;9.78;100.00
12594;BME280;6362;50.208;9.182;2024-02-14T12:23:19;100263.94;;;9.82;100.00
12594;BME280;6362;50.208;9.182;2024-02-14T12:25:47;100268.31;;;10.02;100.00
12594;BME280;6362;50.208;9.182;2024-02-14T12:28:15;100260.50;;;10.10;100.00
12594;BME280;6362;50.208;9.182;2024-02-14T12:30:43;100265.69;;;10.13;100.00
12594;BME280;6362;50.208;9.182;2024-02-14T12:33:11;100270.91;;;10.25;100.00
12594;BME280;6362;50.208;9.182;2024-02-14T12:35:36;100257.91;;;10.25;100.00
12594;BME280;6362;50.208;9.182;2024-02-14T12:38:10;100262.22;;;10.16;100.00
12594;BME280;6362;50.208;9.182;2024-02-14T12:40:36;100262.22;;;10.20;100.00
12594;BME280;6362;50.208;9.182;2024-02-14T12:43:01;100274.34;;;10.15;100.00
12594;BME280;6362;50.208;9.182;2024-02-14T12:45:27;100264.84;;;10.29;100.00
12594;BME280;6362;50.208;9.182;2024-02-14T12:47:52;100262.25;;;10.29;100.00
12594;BME280;6362;50.208;9.182;2024-02-14T12:50:18;100267.41;;;10.20;100.00
12594;BME280;6362;50.208;9.182;2024-02-14T12:52:46;100271.75;;;10.21;100.00
12594;BME280;6362;50.208;9.182;2024-02-14T12:55:12;100276.09;;;10.13;100.00